weather.gov     
National Weather Service

Terminal Aerodrome Forecast
NWS Homepage
This page is being discontinued on March 12, 2014.
The same data is available at this site. Please update your bookmarks.
Thank you, and we apologize for the inconvenience.
Please send an email to SR-SRH.Webmaster@noaa.gov with any concerns.


Current Version
Previous Version:    01  02  03  04  05  06  07  08  09  10  11  12  13  14  15  16  17  18  19  20  21  22  23  24  25  26  27  
[Printable]
889
FTUS43 KMQT 282300
TAFSAW
TAF
KSAW 282327Z 2900/2924 17004KT P6SM OVC035
      TEMPO 2901/2902 BKN025
     FM290200 14003KT 6SM -SHSN OVC015
     FM290700 19003KT 5SM -SHSN BR OVC008
     FM290900 18007KT 5SM -FZDZSN BR OVC005
     FM292300 21009KT P6SM -DZ OVC010
      AMD LTD TO CLD VIS AND WIND 2903/2911=


U.S. Dept. of Commerce
NOAA National Weather Service
1325 East West Highway
Silver Spring, MD 20910
E-mail: w-nws.webmaster@noaa.gov
Page last modified: May 16, 2007
NATIONAL WEATHER SERVICE: for Safety, for Work, for Fun - FOR LIFE